sensor_id;sensor_type;location;lat;lon;timestamp;P1;durP1;ratioP1;P2;durP2;ratioP2
2009;SDS011;1008;47.404;8.502;2023-02-23T00:00:51;16.90;;;8.87;;
2009;SDS011;1008;47.404;8.502;2023-02-23T00:03:18;15.00;;;7.40;;
2009;SDS011;1008;47.404;8.502;2023-02-23T00:05:46;19.77;;;8.90;;
2009;SDS011;1008;47.404;8.502;2023-02-23T00:08:13;15.97;;;8.53;;
2009;SDS011;1008;47.404;8.502;2023-02-23T00:10:39;15.03;;;7.40;;
2009;SDS011;1008;47.404;8.502;2023-02-23T00:13:08;12.17;;;6.97;;
2009;SDS011;1008;47.404;8.502;2023-02-23T00:15:36;16.70;;;6.83;;
2009;SDS011;1008;47.404;8.502;2023-02-23T00:18:03;16.93;;;6.83;;
2009;SDS011;1008;47.404;8.502;2023-02-23T00:20:30;15.47;;;7.20;;
2009;SDS011;1008;47.404;8.502;2023-02-23T00:22:58;14.03;;;6.93;;
2009;SDS011;1008;47.404;8.502;2023-02-23T00:25:24;11.00;;;6.53;;
2009;SDS011;1008;47.404;8.502;2023-02-23T00:27:51;14.23;;;6.77;;
2009;SDS011;1008;47.404;8.502;2023-02-23T00:30:18;11.23;;;6.83;;
2009;SDS011;1008;47.404;8.502;2023-02-23T00:32:45;13.83;;;7.27;;
2009;SDS011;1008;47.404;8.502;2023-02-23T00:35:13;17.57;;;8.07;;
2009;SDS011;1008;47.404;8.502;2023-02-23T00:37:43;14.47;;;7.23;;
2009;SDS011;1008;47.404;8.502;2023-02-23T00:40:12;14.50;;;6.60;;
2009;SDS011;1008;47.404;8.502;2023-02-23T00:42:41;18.70;;;7.50;;
2009;SDS011;1008;47.404;8.502;2023-02-23T00:45:09;13.67;;;6.90;;
2009;SDS011;1008;47.404;8.502;2023-02-23T00:47:37;13.57;;;6.37;;
2009;SDS011;1008;47.404;8.502;2023-02-23T00:50:04;14.00;;;6.37;;
2009;SDS011;1008;47.404;8.502;2023-02-23T00:52:35;15.50;;;6.90;;
2009;SDS011;1008;47.404;8.502;2023-02-23T00:55:03;10.37;;;6.53;;
2009;SDS011;1008;47.404;8.502;2023-02-23T00:57:31;12.43;;;6.07;;
2009;SDS011;1008;47.404;8.502;2023-02-23T00:59:58;13.00;;;6.80;;
2009;SDS011;1008;47.404;8.502;2023-02-23T01:02:25;10.27;;;6.20;;
2009;SDS011;1008;47.404;8.502;2023-02-23T01:04:54;8.80;;;5.60;;
2009;SDS011;1008;47.404;8.502;2023-02-23T01:07:21;11.33;;;5.97;;
2009;SDS011;1008;47.404;8.502;2023-02-23T01:09:49;10.97;;;5.20;;
2009;SDS011;1008;47.404;8.502;2023-02-23T01:12:16;9.97;;;5.47;;
2009;SDS011;1008;47.404;8.502;2023-02-23T01:14:44;9.30;;;5.40;;
2009;SDS011;1008;47.404;8.502;2023-02-23T01:17:11;8.57;;;5.73;;
2009;SDS011;1008;47.404;8.502;2023-02-23T01:19:38;12.10;;;6.17;;
2009;SDS011;1008;47.404;8.502;2023-02-23T01:22:05;12.43;;;5.67;;
2009;SDS011;1008;47.404;8.502;2023-02-23T01:24:31;8.60;;;5.07;;
2009;SDS011;1008;47.404;8.502;2023-02-23T01:26:58;11.37;;;5.30;;
2009;SDS011;1008;47.404;8.502;2023-02-23T01:29:25;13.53;;;6.47;;
2009;SDS011;1008;47.404;8.502;2023-02-23T01:31:53;11.07;;;5.40;;
2009;SDS011;1008;47.404;8.502;2023-02-23T01:34:20;12.03;;;5.83;;
2009;SDS011;1008;47.404;8.502;2023-02-23T01:36:46;12.67;;;5.70;;
2009;SDS011;1008;47.404;8.502;2023-02-23T01:39:14;19.43;;;6.07;;
2009;SDS011;1008;47.404;8.502;2023-02-23T01:41:43;10.33;;;5.90;;
2009;SDS011;1008;47.404;8.502;2023-02-23T01:47:15;10.97;;;6.73;;
2009;SDS011;1008;47.404;8.502;2023-02-23T01:49:44;13.37;;;6.73;;
2009;SDS011;1008;47.404;8.502;2023-02-23T01:52:12;12.50;;;7.67;;
2009;SDS011;1008;47.404;8.502;2023-02-23T01:54:42;16.37;;;7.63;;
2009;SDS011;1008;47.404;8.502;2023-02-23T01:57:14;14.90;;;7.63;;
2009;SDS011;1008;47.404;8.502;2023-02-23T01:59:42;14.40;;;8.00;;
2009;SDS011;1008;47.404;8.502;2023-02-23T02:02:11;14.37;;;7.60;;
2009;SDS011;1008;47.404;8.502;2023-02-23T02:04:40;12.70;;;7.27;;
2009;SDS011;1008;47.404;8.502;2023-02-23T02:07:09;21.83;;;8.50;;
2009;SDS011;1008;47.404;8.502;2023-02-23T02:09:38;17.27;;;8.43;;
2009;SDS011;1008;47.404;8.502;2023-02-23T02:12:25;15.60;;;7.90;;
2009;SDS011;1008;47.404;8.502;2023-02-23T02:14:52;24.37;;;9.10;;
2009;SDS011;1008;47.404;8.502;2023-02-23T02:17:22;18.30;;;8.83;;
2009;SDS011;1008;47.404;8.502;2023-02-23T02:20:02;17.57;;;8.83;;
2009;SDS011;1008;47.404;8.502;2023-02-23T02:25:58;18.60;;;8.33;;
2009;SDS011;1008;47.404;8.502;2023-02-23T02:28:41;17.43;;;8.90;;
2009;SDS011;1008;47.404;8.502;2023-02-23T02:31:30;18.97;;;9.27;;
2009;SDS011;1008;47.404;8.502;2023-02-23T02:34:40;13.57;;;8.30;;
2009;SDS011;1008;47.404;8.502;2023-02-23T02:40:16;23.73;;;9.60;;
2009;SDS011;1008;47.404;8.502;2023-02-23T02:42:59;18.40;;;9.83;;
2009;SDS011;1008;47.404;8.502;2023-02-23T02:45:36;20.50;;;9.47;;
2009;SDS011;1008;47.404;8.502;2023-02-23T02:48:11;19.47;;;9.17;;
2009;SDS011;1008;47.404;8.502;2023-02-23T02:50:46;16.20;;;8.37;;
2009;SDS011;1008;47.404;8.502;2023-02-23T02:53:21;13.10;;;7.87;;
2009;SDS011;1008;47.404;8.502;2023-02-23T02:55:53;15.20;;;8.77;;
2009;SDS011;1008;47.404;8.502;2023-02-23T02:58:23;17.10;;;9.30;;
2009;SDS011;1008;47.404;8.502;2023-02-23T03:00:52;18.93;;;8.57;;
2009;SDS011;1008;47.404;8.502;2023-02-23T03:03:37;18.47;;;9.23;;
2009;SDS011;1008;47.404;8.502;2023-02-23T03:06:25;22.20;;;9.73;;
2009;SDS011;1008;47.404;8.502;2023-02-23T03:09:22;15.27;;;8.97;;
2009;SDS011;1008;47.404;8.502;2023-02-23T03:12:19;19.40;;;9.63;;
2009;SDS011;1008;47.404;8.502;2023-02-23T03:15:12;21.03;;;9.90;;
2009;SDS011;1008;47.404;8.502;2023-02-23T03:18:11;24.20;;;9.43;;
2009;SDS011;1008;47.404;8.502;2023-02-23T03:21:06;24.03;;;9.87;;
2009;SDS011;1008;47.404;8.502;2023-02-23T03:23:59;24.20;;;9.87;;
2009;SDS011;1008;47.404;8.502;2023-02-23T03:26:54;23.33;;;11.87;;
2009;SDS011;1008;47.404;8.502;2023-02-23T03:29:45;19.97;;;9.77;;
2009;SDS011;1008;47.404;8.502;2023-02-23T03:32:38;22.10;;;11.47;;
2009;SDS011;1008;47.404;8.502;2023-02-23T03:35:31;16.70;;;9.80;;
2009;SDS011;1008;47.404;8.502;2023-02-23T03:38:22;22.37;;;10.70;;
2009;SDS011;1008;47.404;8.502;2023-02-23T03:41:13;25.10;;;9.97;;
2009;SDS011;1008;47.404;8.502;2023-02-23T03:44:02;24.43;;;10.30;;
2009;SDS011;1008;47.404;8.502;2023-02-23T03:46:51;22.83;;;11.50;;
2009;SDS011;1008;47.404;8.502;2023-02-23T03:49:38;20.80;;;10.10;;
2009;SDS011;1008;47.404;8.502;2023-02-23T03:52:25;22.40;;;12.00;;
2009;SDS011;1008;47.404;8.502;2023-02-23T03:55:14;22.00;;;11.80;;
2009;SDS011;1008;47.404;8.502;2023-02-23T03:58:01;18.20;;;10.73;;
2009;SDS011;1008;47.404;8.502;2023-02-23T04:00:50;25.97;;;11.23;;
2009;SDS011;1008;47.404;8.502;2023-02-23T04:03:38;24.93;;;12.80;;
2009;SDS011;1008;47.404;8.502;2023-02-23T04:06:25;22.83;;;10.53;;
2009;SDS011;1008;47.404;8.502;2023-02-23T04:09:14;23.43;;;9.63;;
2009;SDS011;1008;47.404;8.502;2023-02-23T04:12:06;17.43;;;10.07;;
2009;SDS011;1008;47.404;8.502;2023-02-23T04:14:56;19.63;;;11.27;;
2009;SDS011;1008;47.404;8.502;2023-02-23T04:17:30;26.00;;;11.40;;
2009;SDS011;1008;47.404;8.502;2023-02-23T04:19:57;21.20;;;10.90;;
2009;SDS011;1008;47.404;8.502;2023-02-23T04:22:24;23.60;;;11.37;;
2009;SDS011;1008;47.404;8.502;2023-02-23T04:24:51;22.50;;;10.70;;
2009;SDS011;1008;47.404;8.502;2023-02-23T04:27:18;28.60;;;11.47;;
2009;SDS011;1008;47.404;8.502;2023-02-23T04:29:45;21.87;;;10.73;;
2009;SDS011;1008;47.404;8.502;2023-02-23T04:32:12;17.63;;;9.53;;
2009;SDS011;1008;47.404;8.502;2023-02-23T04:34:43;20.80;;;10.80;;
2009;SDS011;1008;47.404;8.502;2023-02-23T04:37:10;20.70;;;9.73;;
2009;SDS011;1008;47.404;8.502;2023-02-23T04:39:38;14.83;;;9.50;;
2009;SDS011;1008;47.404;8.502;2023-02-23T04:42:06;23.77;;;10.80;;
2009;SDS011;1008;47.404;8.502;2023-02-23T04:44:33;18.10;;;9.20;;
2009;SDS011;1008;47.404;8.502;2023-02-23T04:47:00;21.10;;;10.70;;
2009;SDS011;1008;47.404;8.502;2023-02-23T04:49:27;21.43;;;10.70;;
2009;SDS011;1008;47.404;8.502;2023-02-23T04:51:55;20.47;;;10.60;;
2009;SDS011;1008;47.404;8.502;2023-02-23T04:54:21;21.60;;;10.90;;
2009;SDS011;1008;47.404;8.502;2023-02-23T04:56:48;19.90;;;9.70;;
2009;SDS011;1008;47.404;8.502;2023-02-23T04:59:15;20.13;;;9.97;;
2009;SDS011;1008;47.404;8.502;2023-02-23T05:01:42;20.80;;;9.57;;
2009;SDS011;1008;47.404;8.502;2023-02-23T05:04:09;20.83;;;9.77;;
2009;SDS011;1008;47.404;8.502;2023-02-23T05:06:36;16.27;;;9.17;;
2009;SDS011;1008;47.404;8.502;2023-02-23T05:09:04;17.83;;;9.10;;
2009;SDS011;1008;47.404;8.502;2023-02-23T05:11:31;20.80;;;10.20;;
2009;SDS011;1008;47.404;8.502;2023-02-23T05:13:58;23.13;;;11.43;;
2009;SDS011;1008;47.404;8.502;2023-02-23T05:16:25;21.90;;;10.27;;
2009;SDS011;1008;47.404;8.502;2023-02-23T05:18:52;31.93;;;13.03;;
2009;SDS011;1008;47.404;8.502;2023-02-23T05:21:19;21.77;;;10.80;;
2009;SDS011;1008;47.404;8.502;2023-02-23T05:23:45;20.83;;;9.80;;
2009;SDS011;1008;47.404;8.502;2023-02-23T05:26:14;19.30;;;10.50;;
2009;SDS011;1008;47.404;8.502;2023-02-23T05:28:41;17.63;;;9.80;;
2009;SDS011;1008;47.404;8.502;2023-02-23T05:31:08;22.90;;;10.43;;
2009;SDS011;1008;47.404;8.502;2023-02-23T05:33:36;21.10;;;9.13;;
2009;SDS011;1008;47.404;8.502;2023-02-23T05:36:07;18.80;;;9.23;;
2009;SDS011;1008;47.404;8.502;2023-02-23T05:38:35;18.10;;;9.30;;
2009;SDS011;1008;47.404;8.502;2023-02-23T05:41:03;21.20;;;9.73;;
2009;SDS011;1008;47.404;8.502;2023-02-23T05:43:33;26.00;;;11.00;;
2009;SDS011;1008;47.404;8.502;2023-02-23T05:46:00;18.33;;;10.07;;
2009;SDS011;1008;47.404;8.502;2023-02-23T05:48:30;18.30;;;10.37;;
2009;SDS011;1008;47.404;8.502;2023-02-23T05:50:59;22.00;;;10.43;;
2009;SDS011;1008;47.404;8.502;2023-02-23T05:53:26;18.00;;;9.77;;
2009;SDS011;1008;47.404;8.502;2023-02-23T05:55:53;22.97;;;10.10;;
2009;SDS011;1008;47.404;8.502;2023-02-23T05:58:20;19.30;;;9.80;;
2009;SDS011;1008;47.404;8.502;2023-02-23T06:00:49;15.43;;;9.50;;
2009;SDS011;1008;47.404;8.502;2023-02-23T06:03:16;21.53;;;10.00;;
2009;SDS011;1008;47.404;8.502;2023-02-23T06:05:47;22.80;;;9.57;;
2009;SDS011;1008;47.404;8.502;2023-02-23T06:08:14;21.63;;;10.47;;
2009;SDS011;1008;47.404;8.502;2023-02-23T06:10:41;19.93;;;10.27;;
2009;SDS011;1008;47.404;8.502;2023-02-23T06:13:08;16.17;;;8.73;;
2009;SDS011;1008;47.404;8.502;2023-02-23T06:15:35;21.70;;;10.43;;
2009;SDS011;1008;47.404;8.502;2023-02-23T06:18:03;22.73;;;10.23;;
2009;SDS011;1008;47.404;8.502;2023-02-23T06:20:31;25.30;;;11.37;;
2009;SDS011;1008;47.404;8.502;2023-02-23T06:22:57;22.60;;;9.93;;
2009;SDS011;1008;47.404;8.502;2023-02-23T06:25:24;20.50;;;9.90;;
2009;SDS011;1008;47.404;8.502;2023-02-23T06:27:51;20.23;;;11.63;;
2009;SDS011;1008;47.404;8.502;2023-02-23T06:30:18;20.17;;;10.13;;
2009;SDS011;1008;47.404;8.502;2023-02-23T06:32:45;8.63;;;5.07;;
2009;SDS011;1008;47.404;8.502;2023-02-23T06:35:13;23.40;;;10.53;;
2009;SDS011;1008;47.404;8.502;2023-02-23T06:37:40;19.90;;;10.60;;
2009;SDS011;1008;47.404;8.502;2023-02-23T06:40:08;23.10;;;11.63;;
2009;SDS011;1008;47.404;8.502;2023-02-23T06:42:35;20.63;;;11.83;;
2009;SDS011;1008;47.404;8.502;2023-02-23T06:45:02;23.90;;;11.40;;
2009;SDS011;1008;47.404;8.502;2023-02-23T06:47:30;24.93;;;10.93;;
2009;SDS011;1008;47.404;8.502;2023-02-23T06:49:57;24.73;;;10.87;;
2009;SDS011;1008;47.404;8.502;2023-02-23T06:52:27;19.83;;;11.00;;
2009;SDS011;1008;47.404;8.502;2023-02-23T06:54:54;16.73;;;9.60;;
2009;SDS011;1008;47.404;8.502;2023-02-23T06:57:21;20.40;;;9.73;;
2009;SDS011;1008;47.404;8.502;2023-02-23T06:59:47;21.13;;;10.37;;
2009;SDS011;1008;47.404;8.502;2023-02-23T07:02:14;20.43;;;10.70;;
2009;SDS011;1008;47.404;8.502;2023-02-23T07:04:41;22.70;;;9.90;;
2009;SDS011;1008;47.404;8.502;2023-02-23T07:07:08;24.57;;;10.97;;
2009;SDS011;1008;47.404;8.502;2023-02-23T07:09:37;21.77;;;10.47;;
2009;SDS011;1008;47.404;8.502;2023-02-23T07:12:04;21.43;;;10.63;;
2009;SDS011;1008;47.404;8.502;2023-02-23T07:14:31;21.60;;;10.70;;
2009;SDS011;1008;47.404;8.502;2023-02-23T07:16:58;19.33;;;10.30;;
2009;SDS011;1008;47.404;8.502;2023-02-23T07:19:25;21.70;;;10.80;;
2009;SDS011;1008;47.404;8.502;2023-02-23T07:21:51;19.70;;;9.83;;
2009;SDS011;1008;47.404;8.502;2023-02-23T07:24:18;25.10;;;11.20;;
2009;SDS011;1008;47.404;8.502;2023-02-23T07:26:47;19.97;;;10.63;;
2009;SDS011;1008;47.404;8.502;2023-02-23T07:29:16;25.20;;;10.37;;
2009;SDS011;1008;47.404;8.502;2023-02-23T07:31:43;22.13;;;10.90;;
2009;SDS011;1008;47.404;8.502;2023-02-23T07:34:10;16.80;;;9.77;;
2009;SDS011;1008;47.404;8.502;2023-02-23T07:36:36;22.37;;;10.80;;
2009;SDS011;1008;47.404;8.502;2023-02-23T07:39:03;22.87;;;10.20;;
2009;SDS011;1008;47.404;8.502;2023-02-23T07:41:30;17.23;;;9.90;;
2009;SDS011;1008;47.404;8.502;2023-02-23T07:43:59;20.77;;;10.17;;
2009;SDS011;1008;47.404;8.502;2023-02-23T07:46:26;21.33;;;10.00;;
2009;SDS011;1008;47.404;8.502;2023-02-23T07:48:53;27.90;;;11.40;;
2009;SDS011;1008;47.404;8.502;2023-02-23T07:51:19;23.93;;;10.83;;
2009;SDS011;1008;47.404;8.502;2023-02-23T07:53:46;18.60;;;10.40;;
2009;SDS011;1008;47.404;8.502;2023-02-23T07:56:13;21.70;;;9.87;;
2009;SDS011;1008;47.404;8.502;2023-02-23T07:58:40;21.93;;;9.90;;
2009;SDS011;1008;47.404;8.502;2023-02-23T08:01:10;17.20;;;10.10;;
2009;SDS011;1008;47.404;8.502;2023-02-23T08:03:37;17.77;;;9.40;;
2009;SDS011;1008;47.404;8.502;2023-02-23T08:06:04;23.67;;;10.53;;
2009;SDS011;1008;47.404;8.502;2023-02-23T08:08:31;18.83;;;9.60;;
2009;SDS011;1008;47.404;8.502;2023-02-23T08:10:59;22.43;;;10.80;;
2009;SDS011;1008;47.404;8.502;2023-02-23T08:13:26;22.50;;;12.00;;
2009;SDS011;1008;47.404;8.502;2023-02-23T08:15:53;24.87;;;11.10;;
2009;SDS011;1008;47.404;8.502;2023-02-23T08:18:21;17.60;;;9.47;;
2009;SDS011;1008;47.404;8.502;2023-02-23T08:20:48;21.00;;;11.10;;
2009;SDS011;1008;47.404;8.502;2023-02-23T08:23:14;21.67;;;10.23;;
2009;SDS011;1008;47.404;8.502;2023-02-23T08:25:42;24.57;;;10.90;;
2009;SDS011;1008;47.404;8.502;2023-02-23T08:28:09;21.60;;;8.80;;
2009;SDS011;1008;47.404;8.502;2023-02-23T08:30:35;19.03;;;9.67;;
2009;SDS011;1008;47.404;8.502;2023-02-23T08:33:03;18.23;;;10.63;;
2009;SDS011;1008;47.404;8.502;2023-02-23T08:35:31;19.83;;;10.10;;
2009;SDS011;1008;47.404;8.502;2023-02-23T08:37:58;19.80;;;9.33;;
2009;SDS011;1008;47.404;8.502;2023-02-23T08:40:25;21.40;;;10.23;;
2009;SDS011;1008;47.404;8.502;2023-02-23T08:42:51;19.73;;;9.80;;
2009;SDS011;1008;47.404;8.502;2023-02-23T08:45:18;19.17;;;9.93;;
2009;SDS011;1008;47.404;8.502;2023-02-23T08:47:45;18.30;;;9.10;;
2009;SDS011;1008;47.404;8.502;2023-02-23T08:50:12;18.83;;;10.03;;
2009;SDS011;1008;47.404;8.502;2023-02-23T08:52:40;19.67;;;10.10;;
2009;SDS011;1008;47.404;8.502;2023-02-23T08:55:08;17.20;;;8.87;;
2009;SDS011;1008;47.404;8.502;2023-02-23T08:57:38;19.33;;;10.17;;
2009;SDS011;1008;47.404;8.502;2023-02-23T09:00:05;20.70;;;11.43;;
2009;SDS011;1008;47.404;8.502;2023-02-23T09:02:38;23.50;;;11.90;;
2009;SDS011;1008;47.404;8.502;2023-02-23T09:05:05;21.47;;;10.60;;
2009;SDS011;1008;47.404;8.502;2023-02-23T09:07:33;27.43;;;10.80;;
2009;SDS011;1008;47.404;8.502;2023-02-23T09:10:02;18.80;;;10.97;;
2009;SDS011;1008;47.404;8.502;2023-02-23T09:12:29;18.83;;;10.10;;
2009;SDS011;1008;47.404;8.502;2023-02-23T09:14:55;20.37;;;9.63;;
2009;SDS011;1008;47.404;8.502;2023-02-23T09:17:22;21.50;;;10.13;;
2009;SDS011;1008;47.404;8.502;2023-02-23T09:19:50;16.63;;;7.97;;
2009;SDS011;1008;47.404;8.502;2023-02-23T09:22:17;16.97;;;7.83;;
2009;SDS011;1008;47.404;8.502;2023-02-23T09:24:44;18.47;;;8.60;;
2009;SDS011;1008;47.404;8.502;2023-02-23T09:27:12;16.10;;;8.77;;
2009;SDS011;1008;47.404;8.502;2023-02-23T09:29:39;14.33;;;7.43;;
2009;SDS011;1008;47.404;8.502;2023-02-23T09:32:07;14.10;;;7.40;;
2009;SDS011;1008;47.404;8.502;2023-02-23T09:34:34;13.90;;;7.70;;
2009;SDS011;1008;47.404;8.502;2023-02-23T09:37:01;22.07;;;8.97;;
2009;SDS011;1008;47.404;8.502;2023-02-23T09:39:28;15.53;;;8.20;;
2009;SDS011;1008;47.404;8.502;2023-02-23T09:41:59;14.57;;;8.10;;
2009;SDS011;1008;47.404;8.502;2023-02-23T09:44:50;19.40;;;8.60;;
2009;SDS011;1008;47.404;8.502;2023-02-23T09:47:28;17.80;;;9.07;;
2009;SDS011;1008;47.404;8.502;2023-02-23T09:50:05;15.33;;;7.30;;
2009;SDS011;1008;47.404;8.502;2023-02-23T09:52:40;17.60;;;8.80;;
2009;SDS011;1008;47.404;8.502;2023-02-23T09:55:10;16.60;;;8.80;;
2009;SDS011;1008;47.404;8.502;2023-02-23T09:57:38;17.10;;;9.43;;
2009;SDS011;1008;47.404;8.502;2023-02-23T10:00:14;15.00;;;8.43;;
2009;SDS011;1008;47.404;8.502;2023-02-23T10:02:55;15.47;;;8.10;;
2009;SDS011;1008;47.404;8.502;2023-02-23T10:05:28;12.90;;;7.90;;
2009;SDS011;1008;47.404;8.502;2023-02-23T10:07:59;14.07;;;8.70;;
2009;SDS011;1008;47.404;8.502;2023-02-23T10:10:33;15.30;;;7.70;;
2009;SDS011;1008;47.404;8.502;2023-02-23T10:13:07;13.23;;;7.63;;
2009;SDS011;1008;47.404;8.502;2023-02-23T10:15:43;10.87;;;6.73;;
2009;SDS011;1008;47.404;8.502;2023-02-23T10:18:17;18.53;;;6.80;;
2009;SDS011;1008;47.404;8.502;2023-02-23T10:20:52;10.30;;;5.73;;
2009;SDS011;1008;47.404;8.502;2023-02-23T10:23:26;11.07;;;6.47;;
2009;SDS011;1008;47.404;8.502;2023-02-23T10:25:55;10.77;;;5.97;;
2009;SDS011;1008;47.404;8.502;2023-02-23T10:28:24;12.87;;;6.37;;
2009;SDS011;1008;47.404;8.502;2023-02-23T10:30:54;12.13;;;6.73;;
2009;SDS011;1008;47.404;8.502;2023-02-23T10:33:22;11.33;;;6.70;;
2009;SDS011;1008;47.404;8.502;2023-02-23T10:35:54;11.07;;;5.90;;
2009;SDS011;1008;47.404;8.502;2023-02-23T10:38:24;11.23;;;5.80;;
2009;SDS011;1008;47.404;8.502;2023-02-23T10:40:53;12.63;;;6.17;;
2009;SDS011;1008;47.404;8.502;2023-02-23T10:43:21;12.43;;;5.73;;
2009;SDS011;1008;47.404;8.502;2023-02-23T10:45:48;12.17;;;6.60;;
2009;SDS011;1008;47.404;8.502;2023-02-23T10:48:19;9.17;;;5.80;;
2009;SDS011;1008;47.404;8.502;2023-02-23T10:50:49;10.13;;;6.77;;
2009;SDS011;1008;47.404;8.502;2023-02-23T10:53:21;14.27;;;6.87;;
2009;SDS011;1008;47.404;8.502;2023-02-23T10:55:59;14.30;;;6.80;;
2009;SDS011;1008;47.404;8.502;2023-02-23T10:58:28;10.30;;;6.20;;
2009;SDS011;1008;47.404;8.502;2023-02-23T11:00:56;15.50;;;6.80;;
2009;SDS011;1008;47.404;8.502;2023-02-23T11:03:26;11.13;;;5.37;;
2009;SDS011;1008;47.404;8.502;2023-02-23T11:05:57;14.10;;;6.57;;
2009;SDS011;1008;47.404;8.502;2023-02-23T11:08:27;10.10;;;5.87;;
2009;SDS011;1008;47.404;8.502;2023-02-23T11:10:57;14.67;;;6.53;;
2009;SDS011;1008;47.404;8.502;2023-02-23T11:13:27;9.80;;;6.27;;
2009;SDS011;1008;47.404;8.502;2023-02-23T11:15:59;9.77;;;6.00;;
2009;SDS011;1008;47.404;8.502;2023-02-23T11:18:29;10.37;;;5.70;;
2009;SDS011;1008;47.404;8.502;2023-02-23T11:20:57;10.50;;;6.40;;
2009;SDS011;1008;47.404;8.502;2023-02-23T11:23:24;9.70;;;5.87;;
2009;SDS011;1008;47.404;8.502;2023-02-23T11:25:54;11.53;;;6.30;;
2009;SDS011;1008;47.404;8.502;2023-02-23T11:28:25;8.93;;;5.50;;
2009;SDS011;1008;47.404;8.502;2023-02-23T11:30:56;8.97;;;5.40;;
2009;SDS011;1008;47.404;8.502;2023-02-23T11:33:26;12.00;;;6.30;;
2009;SDS011;1008;47.404;8.502;2023-02-23T11:36:11;9.00;;;5.37;;
2009;SDS011;1008;47.404;8.502;2023-02-23T11:38:41;14.33;;;5.37;;
2009;SDS011;1008;47.404;8.502;2023-02-23T11:41:17;15.30;;;6.67;;
2009;SDS011;1008;47.404;8.502;2023-02-23T11:43:47;10.50;;;6.33;;
2009;SDS011;1008;47.404;8.502;2023-02-23T11:46:15;9.13;;;5.33;;
2009;SDS011;1008;47.404;8.502;2023-02-23T11:48:47;10.60;;;5.83;;
2009;SDS011;1008;47.404;8.502;2023-02-23T11:51:25;12.70;;;5.30;;
2009;SDS011;1008;47.404;8.502;2023-02-23T11:53:54;10.07;;;5.10;;
2009;SDS011;1008;47.404;8.502;2023-02-23T11:56:22;9.90;;;5.40;;
2009;SDS011;1008;47.404;8.502;2023-02-23T11:58:50;11.80;;;5.80;;
2009;SDS011;1008;47.404;8.502;2023-02-23T12:01:20;8.60;;;4.77;;
2009;SDS011;1008;47.404;8.502;2023-02-23T12:03:50;11.13;;;5.40;;
2009;SDS011;1008;47.404;8.502;2023-02-23T12:06:25;8.80;;;4.60;;
2009;SDS011;1008;47.404;8.502;2023-02-23T12:08:55;16.47;;;5.80;;
2009;SDS011;1008;47.404;8.502;2023-02-23T12:11:30;14.13;;;5.10;;
2009;SDS011;1008;47.404;8.502;2023-02-23T12:14:02;8.37;;;5.47;;
2009;SDS011;1008;47.404;8.502;2023-02-23T12:16:37;7.83;;;4.03;;
2009;SDS011;1008;47.404;8.502;2023-02-23T12:19:10;9.93;;;5.30;;
2009;SDS011;1008;47.404;8.502;2023-02-23T12:21:47;7.67;;;4.77;;
2009;SDS011;1008;47.404;8.502;2023-02-23T12:24:22;8.83;;;5.33;;
2009;SDS011;1008;47.404;8.502;2023-02-23T12:26:57;9.63;;;4.53;;
2009;SDS011;1008;47.404;8.502;2023-02-23T12:29:30;9.53;;;3.90;;
2009;SDS011;1008;47.404;8.502;2023-02-23T12:32:03;8.03;;;4.10;;
2009;SDS011;1008;47.404;8.502;2023-02-23T12:34:38;9.10;;;4.60;;
2009;SDS011;1008;47.404;8.502;2023-02-23T12:37:14;7.70;;;3.90;;
2009;SDS011;1008;47.404;8.502;2023-02-23T12:39:53;9.20;;;4.90;;
2009;SDS011;1008;47.404;8.502;2023-02-23T12:42:24;11.20;;;4.90;;
2009;SDS011;1008;47.404;8.502;2023-02-23T12:45:02;9.20;;;5.43;;
2009;SDS011;1008;47.404;8.502;2023-02-23T12:47:31;11.80;;;5.53;;
2009;SDS011;1008;47.404;8.502;2023-02-23T12:50:03;10.50;;;5.70;;
2009;SDS011;1008;47.404;8.502;2023-02-23T12:52:37;8.60;;;4.70;;
2009;SDS011;1008;47.404;8.502;2023-02-23T12:55:11;11.13;;;6.40;;
2009;SDS011;1008;47.404;8.502;2023-02-23T12:57:41;9.73;;;5.83;;
2009;SDS011;1008;47.404;8.502;2023-02-23T13:00:21;9.83;;;5.10;;
2009;SDS011;1008;47.404;8.502;2023-02-23T13:03:11;13.33;;;5.53;;
2009;SDS011;1008;47.404;8.502;2023-02-23T13:05:49;9.17;;;5.50;;
2009;SDS011;1008;47.404;8.502;2023-02-23T13:08:23;11.17;;;5.50;;
2009;SDS011;1008;47.404;8.502;2023-02-23T13:11:01;11.30;;;6.03;;
2009;SDS011;1008;47.404;8.502;2023-02-23T13:13:35;9.73;;;4.97;;
2009;SDS011;1008;47.404;8.502;2023-02-23T13:16:09;14.40;;;5.70;;
2009;SDS011;1008;47.404;8.502;2023-02-23T13:18:43;11.27;;;5.20;;
2009;SDS011;1008;47.404;8.502;2023-02-23T13:21:16;12.37;;;5.87;;
2009;SDS011;1008;47.404;8.502;2023-02-23T13:23:53;7.93;;;4.67;;
2009;SDS011;1008;47.404;8.502;2023-02-23T13:26:26;8.63;;;4.93;;
2009;SDS011;1008;47.404;8.502;2023-02-23T13:28:59;8.80;;;4.70;;
2009;SDS011;1008;47.404;8.502;2023-02-23T13:31:31;16.13;;;5.90;;
2009;SDS011;1008;47.404;8.502;2023-02-23T13:34:00;7.57;;;4.50;;
2009;SDS011;1008;47.404;8.502;2023-02-23T13:36:31;10.87;;;5.10;;
2009;SDS011;1008;47.404;8.502;2023-02-23T13:39:05;11.17;;;5.93;;
2009;SDS011;1008;47.404;8.502;2023-02-23T13:42:02;8.07;;;5.17;;
2009;SDS011;1008;47.404;8.502;2023-02-23T13:44:54;10.20;;;5.60;;
2009;SDS011;1008;47.404;8.502;2023-02-23T13:47:32;16.00;;;5.70;;
2009;SDS011;1008;47.404;8.502;2023-02-23T13:50:04;8.43;;;4.57;;
2009;SDS011;1008;47.404;8.502;2023-02-23T13:52:43;8.93;;;4.87;;
2009;SDS011;1008;47.404;8.502;2023-02-23T13:58:20;8.73;;;4.50;;
2009;SDS011;1008;47.404;8.502;2023-02-23T14:01:02;7.73;;;4.57;;
2009;SDS011;1008;47.404;8.502;2023-02-23T14:03:38;8.13;;;5.03;;
2009;SDS011;1008;47.404;8.502;2023-02-23T14:06:10;10.73;;;5.33;;
2009;SDS011;1008;47.404;8.502;2023-02-23T14:08:41;14.90;;;5.10;;
2009;SDS011;1008;47.404;8.502;2023-02-23T14:11:09;9.03;;;4.80;;
2009;SDS011;1008;47.404;8.502;2023-02-23T14:14:01;12.97;;;6.97;;
2009;SDS011;1008;47.404;8.502;2023-02-23T14:16:28;6.90;;;4.70;;
2009;SDS011;1008;47.404;8.502;2023-02-23T14:19:03;9.67;;;5.17;;
2009;SDS011;1008;47.404;8.502;2023-02-23T14:21:34;6.63;;;4.00;;
2009;SDS011;1008;47.404;8.502;2023-02-23T14:24:19;9.80;;;5.23;;
2009;SDS011;1008;47.404;8.502;2023-02-23T14:30:13;7.60;;;4.90;;
2009;SDS011;1008;47.404;8.502;2023-02-23T14:32:47;10.87;;;4.80;;
2009;SDS011;1008;47.404;8.502;2023-02-23T14:38:09;10.23;;;5.10;;
2009;SDS011;1008;47.404;8.502;2023-02-23T14:40:43;8.83;;;5.50;;
2009;SDS011;1008;47.404;8.502;2023-02-23T14:46:07;9.43;;;5.00;;
2009;SDS011;1008;47.404;8.502;2023-02-23T14:48:36;13.37;;;4.90;;
2009;SDS011;1008;47.404;8.502;2023-02-23T14:51:09;7.87;;;4.30;;
2009;SDS011;1008;47.404;8.502;2023-02-23T14:53:41;6.40;;;4.30;;
2009;SDS011;1008;47.404;8.502;2023-02-23T14:56:17;13.80;;;4.57;;
2009;SDS011;1008;47.404;8.502;2023-02-23T14:58:48;7.40;;;4.50;;
2009;SDS011;1008;47.404;8.502;2023-02-23T15:01:30;10.70;;;4.60;;
2009;SDS011;1008;47.404;8.502;2023-02-23T15:04:04;5.73;;;3.90;;
2009;SDS011;1008;47.404;8.502;2023-02-23T15:06:32;9.70;;;5.00;;
2009;SDS011;1008;47.404;8.502;2023-02-23T15:08:59;7.97;;;4.47;;
2009;SDS011;1008;47.404;8.502;2023-02-23T15:11:28;8.57;;;4.67;;
2009;SDS011;1008;47.404;8.502;2023-02-23T15:13:56;10.30;;;4.97;;
2009;SDS011;1008;47.404;8.502;2023-02-23T15:16:26;9.57;;;5.10;;
2009;SDS011;1008;47.404;8.502;2023-02-23T15:18:56;8.97;;;5.50;;
2009;SDS011;1008;47.404;8.502;2023-02-23T15:21:28;9.93;;;5.10;;
2009;SDS011;1008;47.404;8.502;2023-02-23T15:23:57;8.90;;;4.87;;
2009;SDS011;1008;47.404;8.502;2023-02-23T15:26:34;12.27;;;5.40;;
2009;SDS011;1008;47.404;8.502;2023-02-23T15:29:04;11.63;;;5.60;;
2009;SDS011;1008;47.404;8.502;2023-02-23T15:31:32;9.97;;;5.27;;
2009;SDS011;1008;47.404;8.502;2023-02-23T15:34:00;9.07;;;5.40;;
2009;SDS011;1008;47.404;8.502;2023-02-23T15:36:27;8.80;;;5.50;;
2009;SDS011;1008;47.404;8.502;2023-02-23T15:38:58;10.30;;;4.90;;
2009;SDS011;1008;47.404;8.502;2023-02-23T15:41:29;7.23;;;4.40;;
2009;SDS011;1008;47.404;8.502;2023-02-23T15:44:02;8.17;;;4.57;;
2009;SDS011;1008;47.404;8.502;2023-02-23T15:46:31;13.53;;;4.63;;
2009;SDS011;1008;47.404;8.502;2023-02-23T15:48:59;6.20;;;3.97;;